Youngwood, Pennsylvania
Current Conditions -  °F | °C
As of 10:47 AM on Friday 19 Dec 2014 (Local Time) from KLBE Reporting Station
Light Snow Light Snow  
Wind Chill: 21°   Ceiling: 900
Heat Index: 28°   Visibility: 5mi
Dew Point: 28°   Wind: 7mph
Humidity: 100%   Direction: 250°WSW
Pressure: 30.21"   Gusts: NA
Location:  40.24°N, 79.58°W
Report Text: KLBE 191547Z 25006KT 5SM -SN OVC009 M02/M02 A3021
Loading
Personal Weather Stations






























Interactive Weather Map New forecast layout! Learn more

10-Day Weather Forecast

Advertisements
Track Severe Weather on mobile